createdAt,value
2017-09-30T00:00:29.486Z,1004.09
2017-09-30T00:01:29.500Z,1004.04
2017-09-30T00:02:29.522Z,1004.02
2017-09-30T00:03:29.548Z,1004.06
2017-09-30T00:04:29.564Z,1004.05
2017-09-30T00:05:29.585Z,1004.03
2017-09-30T00:06:29.610Z,1004.07
2017-09-30T00:07:29.633Z,1004.10
2017-09-30T00:08:29.651Z,1004.09
2017-09-30T00:09:29.673Z,1004.08
2017-09-30T00:10:29.696Z,1004.02
2017-09-30T00:11:29.719Z,1004.01
2017-09-30T00:12:29.740Z,1004.03
2017-09-30T00:13:29.759Z,1004.03
2017-09-30T00:14:29.784Z,1004.05
2017-09-30T00:15:29.806Z,1004.01
2017-09-30T00:16:29.828Z,1003.99
2017-09-30T00:17:29.847Z,1003.99
2017-09-30T00:18:29.868Z,1003.97
2017-09-30T00:19:29.898Z,1003.96
2017-09-30T00:20:29.914Z,1003.97
2017-09-30T00:21:29.936Z,1003.97
2017-09-30T00:22:29.956Z,1003.97
2017-09-30T00:23:29.981Z,1003.96
2017-09-30T00:24:29.996Z,1003.97
2017-09-30T00:25:30.023Z,1003.96
2017-09-30T00:26:30.044Z,1003.96
2017-09-30T00:27:30.067Z,1003.94
2017-09-30T00:28:30.088Z,1003.94
2017-09-30T00:29:30.113Z,1003.95
2017-09-30T00:30:30.130Z,1003.96
2017-09-30T00:31:30.155Z,1003.92
2017-09-30T00:32:30.176Z,1003.96
2017-09-30T00:33:30.195Z,1003.95
2017-09-30T00:34:30.217Z,1003.94
2017-09-30T00:35:30.237Z,1003.96
2017-09-30T00:36:30.260Z,1003.98
2017-09-30T00:37:30.283Z,1003.97
2017-09-30T00:38:30.304Z,1003.96
2017-09-30T00:39:30.326Z,1003.92
2017-09-30T00:40:30.348Z,1003.90
2017-09-30T00:41:30.371Z,1003.95
2017-09-30T00:42:30.390Z,1003.93
2017-09-30T00:43:30.416Z,1003.94
2017-09-30T00:44:30.434Z,1003.95
2017-09-30T00:45:30.458Z,1003.95
2017-09-30T00:46:30.479Z,1003.94
2017-09-30T00:47:30.499Z,1003.96
2017-09-30T00:48:30.545Z,1003.93
2017-09-30T00:49:30.547Z,1003.93
2017-09-30T00:50:30.564Z,1003.93
2017-09-30T00:51:30.588Z,1003.93
2017-09-30T00:52:30.609Z,1003.92
2017-09-30T00:53:30.630Z,1003.92
2017-09-30T00:54:30.649Z,1003.95
2017-09-30T00:55:30.674Z,1003.95
2017-09-30T00:56:30.698Z,1003.87
2017-09-30T00:57:30.716Z,1003.85
2017-09-30T00:58:30.739Z,1003.90
2017-09-30T00:59:30.758Z,1003.93
2017-09-30T01:00:30.782Z,1003.92
2017-09-30T01:01:30.804Z,1003.94
2017-09-30T01:02:30.825Z,1003.97
2017-09-30T01:03:30.848Z,1003.97
2017-09-30T01:04:30.875Z,1003.96
2017-09-30T01:05:30.892Z,1003.92
2017-09-30T01:06:30.913Z,1003.93
2017-09-30T01:07:30.935Z,1003.90
2017-09-30T01:08:30.954Z,1003.87
2017-09-30T01:09:30.977Z,1003.86
2017-09-30T01:10:30.999Z,1003.84
2017-09-30T01:11:31.020Z,1003.85
2017-09-30T01:12:31.044Z,1003.80
2017-09-30T01:13:31.065Z,1003.80
2017-09-30T01:14:31.086Z,1003.81
2017-09-30T01:15:31.108Z,1003.78
2017-09-30T01:16:31.130Z,1003.80
2017-09-30T01:17:31.149Z,1003.81
2017-09-30T01:18:31.172Z,1003.75
2017-09-30T01:19:31.193Z,1003.76
2017-09-30T01:20:31.215Z,1003.75
2017-09-30T01:21:31.236Z,1003.75
2017-09-30T01:22:31.259Z,1003.69
2017-09-30T01:23:31.282Z,1003.71
2017-09-30T01:24:31.302Z,1003.76
2017-09-30T01:25:31.324Z,1003.76
2017-09-30T01:26:31.343Z,1003.72
2017-09-30T01:27:31.370Z,1003.75
2017-09-30T01:28:31.390Z,1003.74
2017-09-30T01:29:31.410Z,1003.78
2017-09-30T01:30:31.437Z,1003.76
2017-09-30T01:31:31.452Z,1003.69
2017-09-30T01:32:31.479Z,1003.73
2017-09-30T01:33:31.496Z,1003.71
2017-09-30T01:34:31.528Z,1003.72
2017-09-30T01:35:31.539Z,1003.69
2017-09-30T01:36:31.562Z,1003.69
2017-09-30T01:37:31.583Z,1003.67
2017-09-30T01:38:31.607Z,1003.65
2017-09-30T01:39:31.631Z,1003.62
2017-09-30T01:40:31.648Z,1003.66
2017-09-30T01:41:31.667Z,1003.64
2017-09-30T01:42:31.693Z,1003.59
2017-09-30T01:43:31.716Z,1003.60
2017-09-30T01:44:31.735Z,1003.58
2017-09-30T01:45:31.760Z,1003.60
2017-09-30T01:46:31.780Z,1003.58
2017-09-30T01:47:31.803Z,1003.56
2017-09-30T01:48:31.820Z,1003.57
2017-09-30T01:49:31.844Z,1003.59
2017-09-30T01:50:31.863Z,1003.60
2017-09-30T01:51:31.886Z,1003.62
2017-09-30T01:52:31.905Z,1003.62
2017-09-30T01:53:31.928Z,1003.66
2017-09-30T01:54:31.950Z,1003.67
2017-09-30T01:55:31.972Z,1003.67
2017-09-30T01:56:31.994Z,1003.69
2017-09-30T01:57:32.014Z,1003.69
2017-09-30T01:58:32.033Z,1003.73
2017-09-30T01:59:32.059Z,1003.71
2017-09-30T02:00:32.076Z,1003.70
2017-09-30T02:01:32.098Z,1003.74
2017-09-30T02:02:32.121Z,1003.70
2017-09-30T02:03:32.148Z,1003.69
2017-09-30T02:04:32.163Z,1003.68
2017-09-30T02:05:32.186Z,1003.70
2017-09-30T02:06:32.208Z,1003.70
2017-09-30T02:07:32.227Z,1003.73
2017-09-30T02:08:32.248Z,1003.71
2017-09-30T02:09:32.282Z,1003.67
2017-09-30T02:10:32.292Z,1003.70
2017-09-30T02:11:32.314Z,1003.72
2017-09-30T02:12:32.336Z,1003.75
2017-09-30T02:13:32.355Z,1003.70
2017-09-30T02:14:32.378Z,1003.66
2017-09-30T02:15:32.401Z,1003.70
2017-09-30T02:16:32.422Z,1003.71
2017-09-30T02:17:32.445Z,1003.67
2017-09-30T02:18:32.466Z,1003.66
2017-09-30T02:19:32.490Z,1003.63
2017-09-30T02:20:32.508Z,1003.64
2017-09-30T02:21:32.532Z,1003.62
2017-09-30T02:22:32.550Z,1003.60
2017-09-30T02:23:32.574Z,1003.58
2017-09-30T02:24:32.592Z,1003.60
2017-09-30T02:25:32.616Z,1003.58
2017-09-30T02:26:32.637Z,1003.57
2017-09-30T02:27:32.660Z,1003.64
2017-09-30T02:28:32.681Z,1003.62
2017-09-30T02:29:32.702Z,1003.65
2017-09-30T02:30:32.727Z,1003.66
2017-09-30T02:31:32.743Z,1003.64
2017-09-30T02:32:32.774Z,1003.67
2017-09-30T02:33:32.794Z,1003.63
2017-09-30T02:34:32.810Z,1003.64
2017-09-30T02:35:32.832Z,1003.64
2017-09-30T02:36:32.852Z,1003.64
2017-09-30T02:37:32.871Z,1003.69
2017-09-30T02:38:32.894Z,1003.67
2017-09-30T02:39:32.915Z,1003.67
2017-09-30T02:40:32.937Z,1003.68
2017-09-30T02:41:32.957Z,1003.69
2017-09-30T02:42:32.982Z,1003.65
2017-09-30T02:43:33.003Z,1003.67
2017-09-30T02:44:33.025Z,1003.64
2017-09-30T02:45:33.044Z,1003.65
2017-09-30T02:46:33.067Z,1003.67
2017-09-30T02:47:33.089Z,1003.68
2017-09-30T02:48:33.108Z,1003.65
2017-09-30T02:49:33.127Z,1003.66
2017-09-30T02:50:33.149Z,1003.69
2017-09-30T02:51:33.174Z,1003.64
2017-09-30T02:52:33.196Z,1003.61
2017-09-30T02:53:33.212Z,1003.61
2017-09-30T02:54:33.242Z,1003.56
2017-09-30T02:55:33.261Z,1003.58
2017-09-30T02:56:33.278Z,1003.56
2017-09-30T02:57:33.301Z,1003.56
2017-09-30T02:58:33.320Z,1003.54
2017-09-30T02:59:33.344Z,1003.55
2017-09-30T03:00:33.364Z,1003.53
2017-09-30T03:01:33.385Z,1003.54
2017-09-30T03:02:33.408Z,1003.56
2017-09-30T03:03:33.428Z,1003.52
2017-09-30T03:04:33.451Z,1003.49
2017-09-30T03:05:33.476Z,1003.50
2017-09-30T03:06:33.493Z,1003.48
2017-09-30T03:07:33.513Z,1003.45
2017-09-30T03:08:33.534Z,1003.42
2017-09-30T03:09:33.556Z,1003.43
2017-09-30T03:10:33.578Z,1003.45
2017-09-30T03:11:33.599Z,1003.48
2017-09-30T03:12:33.623Z,1003.47
2017-09-30T03:13:33.640Z,1003.45
2017-09-30T03:14:33.663Z,1003.42
2017-09-30T03:15:33.684Z,1003.39
2017-09-30T03:16:33.703Z,1003.41
2017-09-30T03:17:33.728Z,1003.41
2017-09-30T03:18:33.749Z,1003.34
2017-09-30T03:19:33.771Z,1003.38
2017-09-30T03:20:33.790Z,1003.37
2017-09-30T03:21:33.812Z,1003.33
2017-09-30T03:22:33.833Z,1003.30
2017-09-30T03:23:33.854Z,1003.29
2017-09-30T03:24:33.877Z,1003.28
2017-09-30T03:25:33.900Z,1003.24
2017-09-30T03:26:33.925Z,1003.24
2017-09-30T03:27:33.942Z,1003.28
2017-09-30T03:28:33.963Z,1003.29
2017-09-30T03:29:33.985Z,1003.30
2017-09-30T03:30:34.007Z,1003.26
2017-09-30T03:31:34.028Z,1003.28
2017-09-30T03:32:34.048Z,1003.29
2017-09-30T03:33:34.070Z,1003.26
2017-09-30T03:34:34.094Z,1003.22
2017-09-30T03:35:34.114Z,1003.26
2017-09-30T03:36:34.135Z,1003.26
2017-09-30T03:37:34.157Z,1003.27
2017-09-30T03:38:34.178Z,1003.22
2017-09-30T03:39:34.200Z,1003.24
2017-09-30T03:40:34.223Z,1003.22
2017-09-30T03:41:34.242Z,1003.18
2017-09-30T03:42:34.268Z,1003.15
2017-09-30T03:43:34.288Z,1003.15
2017-09-30T03:44:34.307Z,1003.14
2017-09-30T03:45:34.331Z,1003.14
2017-09-30T03:46:34.351Z,1003.18
2017-09-30T03:47:34.373Z,1003.16
2017-09-30T03:48:34.395Z,1003.16
2017-09-30T03:49:34.416Z,1003.12
2017-09-30T03:50:34.437Z,1003.12
2017-09-30T03:51:34.461Z,1003.15
2017-09-30T03:52:34.479Z,1003.15
2017-09-30T03:53:34.504Z,1003.12
2017-09-30T03:54:34.526Z,1003.13
2017-09-30T03:55:34.546Z,1003.12
2017-09-30T03:56:34.572Z,1003.09
2017-09-30T03:57:34.590Z,1003.08
2017-09-30T03:58:34.621Z,1003.07
2017-09-30T03:59:34.633Z,1003.08
2017-09-30T04:00:34.654Z,1003.07
2017-09-30T04:01:34.681Z,1003.08
2017-09-30T04:02:34.696Z,1003.07
2017-09-30T04:03:34.720Z,1003.06
2017-09-30T04:04:34.742Z,1003.03
2017-09-30T04:05:34.763Z,1003.07
2017-09-30T04:06:34.786Z,1003.06
2017-09-30T04:07:34.806Z,1003.05
2017-09-30T04:08:34.828Z,1003.05
2017-09-30T04:09:34.851Z,1003.01
2017-09-30T04:10:34.873Z,1003.01
2017-09-30T04:11:34.893Z,1003.01
2017-09-30T04:12:34.916Z,1003.02
2017-09-30T04:13:34.941Z,1003.02
2017-09-30T04:14:34.959Z,1002.97
2017-09-30T04:15:34.980Z,1002.94
2017-09-30T04:16:35.000Z,1002.98
2017-09-30T04:17:35.022Z,1002.99
2017-09-30T04:18:35.044Z,1002.96
2017-09-30T04:19:35.067Z,1002.95
2017-09-30T04:20:35.087Z,1002.96
2017-09-30T04:21:35.109Z,1002.97
2017-09-30T04:22:35.131Z,1002.95
2017-09-30T04:23:35.154Z,1002.96
2017-09-30T04:24:35.173Z,1002.97
2017-09-30T04:25:35.196Z,1002.97
2017-09-30T04:26:35.215Z,1002.99
2017-09-30T04:27:35.239Z,1002.98
2017-09-30T04:28:35.259Z,1002.97
2017-09-30T04:29:35.281Z,1003.00
2017-09-30T04:30:35.302Z,1003.04
2017-09-30T04:31:35.325Z,1003.06
2017-09-30T04:32:35.349Z,1003.05
2017-09-30T04:33:35.368Z,1003.14
2017-09-30T04:34:35.392Z,1003.16
2017-09-30T04:35:35.414Z,1003.17
2017-09-30T04:36:35.431Z,1003.21
2017-09-30T04:37:35.456Z,1003.23
2017-09-30T04:38:35.476Z,1003.26
2017-09-30T04:39:35.497Z,1003.28
2017-09-30T04:40:35.520Z,1003.32
2017-09-30T04:41:35.538Z,1003.35
2017-09-30T04:42:36.294Z,1003.39
2017-09-30T04:43:35.585Z,1003.39
2017-09-30T04:44:35.608Z,1003.35
2017-09-30T04:45:35.627Z,1003.34
2017-09-30T04:46:35.648Z,1003.33
2017-09-30T04:47:35.669Z,1003.38
2017-09-30T04:48:35.690Z,1003.38
2017-09-30T04:49:35.712Z,1003.34
2017-09-30T04:50:35.735Z,1003.34
2017-09-30T04:51:35.758Z,1003.24
2017-09-30T04:52:35.779Z,1003.27
2017-09-30T04:53:35.799Z,1003.28
2017-09-30T04:54:35.822Z,1003.26
2017-09-30T04:55:35.844Z,1003.31
2017-09-30T04:56:35.863Z,1003.31
2017-09-30T04:57:35.885Z,1003.28
2017-09-30T04:58:35.910Z,1003.26
2017-09-30T04:59:35.930Z,1003.20
2017-09-30T05:00:35.950Z,1003.22
2017-09-30T05:01:35.979Z,1003.22
2017-09-30T05:02:35.993Z,1003.22
2017-09-30T05:03:36.017Z,1003.21
2017-09-30T05:04:36.035Z,1003.19
2017-09-30T05:05:36.060Z,1003.17
2017-09-30T05:06:36.081Z,1003.19
2017-09-30T05:07:36.102Z,1003.16
2017-09-30T05:08:36.123Z,1003.18
2017-09-30T05:09:36.147Z,1003.21
2017-09-30T05:10:36.168Z,1003.20
2017-09-30T05:11:36.190Z,1003.26
2017-09-30T05:12:36.222Z,1003.25
2017-09-30T05:13:36.234Z,1003.26
2017-09-30T05:14:36.249Z,1003.28
2017-09-30T05:15:36.273Z,1003.30
2017-09-30T05:16:36.294Z,1003.32
2017-09-30T05:17:36.319Z,1003.31
2017-09-30T05:18:36.340Z,1003.30
2017-09-30T05:19:36.359Z,1003.34
2017-09-30T05:20:36.381Z,1003.33
2017-09-30T05:21:36.402Z,1003.33
2017-09-30T05:22:36.424Z,1003.32
2017-09-30T05:23:36.444Z,1003.35
2017-09-30T05:24:36.468Z,1003.30
2017-09-30T05:25:36.486Z,1003.30
2017-09-30T05:26:36.506Z,1003.32
2017-09-30T05:27:36.530Z,1003.28
2017-09-30T05:28:36.551Z,1003.26
2017-09-30T05:29:36.571Z,1003.31
2017-09-30T05:30:36.591Z,1003.30
2017-09-30T05:31:36.615Z,1003.30
2017-09-30T05:32:36.639Z,1003.28
2017-09-30T05:33:36.777Z,1003.25
2017-09-30T05:34:36.678Z,1003.24
2017-09-30T05:35:36.708Z,1003.26
2017-09-30T05:36:36.720Z,1003.23
2017-09-30T05:37:36.744Z,1003.24
2017-09-30T05:38:36.774Z,1003.23
2017-09-30T05:39:36.785Z,1003.26
2017-09-30T05:40:36.807Z,1003.24
2017-09-30T05:41:36.827Z,1003.26
2017-09-30T05:42:36.849Z,1003.23
2017-09-30T05:43:36.870Z,1003.21
2017-09-30T05:44:36.890Z,1003.26
2017-09-30T05:45:36.914Z,1003.23
2017-09-30T05:46:36.937Z,1003.25
2017-09-30T05:47:36.957Z,1003.25
2017-09-30T05:48:36.986Z,1003.21
2017-09-30T05:49:37.000Z,1003.26
2017-09-30T05:50:37.023Z,1003.24
2017-09-30T05:51:37.043Z,1003.22
2017-09-30T05:52:37.069Z,1003.25
2017-09-30T05:53:37.083Z,1003.20
2017-09-30T05:54:37.105Z,1003.19
2017-09-30T05:55:37.128Z,1003.17
2017-09-30T05:56:37.147Z,1003.22
2017-09-30T05:57:37.170Z,1003.21
2017-09-30T05:58:37.192Z,1003.16
2017-09-30T05:59:37.213Z,1003.17
2017-09-30T06:00:37.233Z,1003.17
2017-09-30T06:01:37.254Z,1003.18
2017-09-30T06:02:37.277Z,1003.17
2017-09-30T06:03:37.300Z,1003.18
2017-09-30T06:04:37.320Z,1003.17
2017-09-30T06:05:37.341Z,1003.15
2017-09-30T06:06:37.365Z,1003.17
2017-09-30T06:07:37.433Z,1003.15
2017-09-30T06:08:37.405Z,1003.18
2017-09-30T06:09:37.430Z,1003.21
2017-09-30T06:10:37.449Z,1003.21
2017-09-30T06:11:37.472Z,1003.23
2017-09-30T06:12:37.491Z,1003.21
2017-09-30T06:13:37.514Z,1003.21
2017-09-30T06:14:37.539Z,1003.20
2017-09-30T06:15:37.556Z,1003.20
2017-09-30T06:16:37.577Z,1003.15
2017-09-30T06:17:37.600Z,1003.18
2017-09-30T06:18:37.622Z,1003.13
2017-09-30T06:19:37.644Z,1003.17
2017-09-30T06:20:37.664Z,1003.14
2017-09-30T06:21:37.686Z,1003.13
2017-09-30T06:22:37.709Z,1003.16
2017-09-30T06:23:37.731Z,1003.11
2017-09-30T06:24:37.750Z,1003.14
2017-09-30T06:25:37.774Z,1003.19
2017-09-30T06:26:37.795Z,1003.21
2017-09-30T06:27:37.814Z,1003.23
2017-09-30T06:28:37.837Z,1003.26
2017-09-30T06:29:37.859Z,1003.27
2017-09-30T06:30:37.879Z,1003.28
2017-09-30T06:31:37.908Z,1003.26
2017-09-30T06:32:37.923Z,1003.25
2017-09-30T06:33:37.945Z,1003.28
2017-09-30T06:34:37.967Z,1003.34
2017-09-30T06:35:37.987Z,1003.36
2017-09-30T06:36:38.010Z,1003.38
2017-09-30T06:37:38.031Z,1003.40
2017-09-30T06:38:38.052Z,1003.42
2017-09-30T06:39:38.076Z,1003.39
2017-09-30T06:40:38.097Z,1003.37
2017-09-30T06:41:38.117Z,1003.40
2017-09-30T06:42:38.138Z,1003.35
2017-09-30T06:43:38.160Z,1003.34
2017-09-30T06:44:38.196Z,1003.27
2017-09-30T06:45:38.203Z,1003.24
2017-09-30T06:46:38.226Z,1003.13
2017-09-30T06:47:38.246Z,1003.03
2017-09-30T06:48:38.265Z,1002.94
2017-09-30T06:49:38.290Z,1002.86
2017-09-30T06:50:38.313Z,1002.79
2017-09-30T06:51:38.333Z,1002.75
2017-09-30T06:52:38.353Z,1002.70
2017-09-30T06:53:38.375Z,1002.63
2017-09-30T06:54:38.400Z,1002.63
2017-09-30T06:55:38.418Z,1002.63
2017-09-30T06:56:38.441Z,1002.62
2017-09-30T06:57:38.461Z,1002.58
2017-09-30T06:58:38.556Z,1002.61
2017-09-30T06:59:38.576Z,1002.58
2017-09-30T07:00:38.689Z,1002.55
2017-09-30T07:01:38.579Z,1002.54
2017-09-30T07:02:38.593Z,1002.50
2017-09-30T07:03:38.597Z,1002.49
2017-09-30T07:04:38.675Z,1002.49
2017-09-30T07:05:38.658Z,1002.49
2017-09-30T07:06:38.670Z,1002.48
2017-09-30T07:07:38.704Z,1002.43
2017-09-30T07:08:38.723Z,1002.41
2017-09-30T07:09:38.732Z,1002.40
2017-09-30T07:10:38.740Z,1002.35
2017-09-30T07:11:38.835Z,1002.35
2017-09-30T07:12:38.813Z,1002.36
2017-09-30T07:13:38.805Z,1002.36
2017-09-30T07:14:38.962Z,1002.40
2017-09-30T07:15:38.860Z,1002.38
2017-09-30T07:16:38.871Z,1002.43
2017-09-30T07:17:38.913Z,1002.52
2017-09-30T07:18:38.942Z,1002.58
2017-09-30T07:19:38.990Z,1002.60
2017-09-30T07:20:38.963Z,1002.59
2017-09-30T07:21:39.003Z,1002.58
2017-09-30T07:22:39.001Z,1002.61
2017-09-30T07:23:39.028Z,1002.67
2017-09-30T07:24:39.040Z,1002.76
2017-09-30T07:25:39.062Z,1002.89
2017-09-30T07:26:39.141Z,1003.01
2017-09-30T07:27:39.237Z,1003.12
2017-09-30T07:28:39.134Z,1003.21
2017-09-30T07:29:39.170Z,1003.40
2017-09-30T07:30:39.226Z,1003.77
2017-09-30T07:31:39.204Z,1003.54
2017-09-30T07:32:39.238Z,1003.36
2017-09-30T07:33:39.244Z,1003.45
2017-09-30T07:34:39.265Z,1003.87
2017-09-30T07:35:39.331Z,1004.36
2017-09-30T07:36:39.305Z,1004.61
2017-09-30T07:37:39.447Z,1004.51
2017-09-30T07:38:39.372Z,1004.37
2017-09-30T07:39:39.392Z,1003.87
2017-09-30T07:40:39.425Z,1004.34
2017-09-30T07:41:39.437Z,1004.42
2017-09-30T07:42:39.479Z,1004.53
2017-09-30T07:43:39.476Z,1004.55
2017-09-30T07:44:39.493Z,1004.43
2017-09-30T07:45:39.511Z,1004.51
2017-09-30T07:46:39.547Z,1004.61
2017-09-30T07:47:39.683Z,1004.55
2017-09-30T07:48:39.590Z,1004.29
2017-09-30T07:49:39.614Z,1003.99
2017-09-30T07:50:39.629Z,1003.85
2017-09-30T07:51:39.673Z,1004.15
2017-09-30T07:52:39.681Z,1003.89
2017-09-30T07:53:39.737Z,1003.67
2017-09-30T07:54:39.735Z,1003.58
2017-09-30T07:55:39.783Z,1003.53
2017-09-30T07:56:39.790Z,1003.66
2017-09-30T07:57:39.818Z,1003.80
2017-09-30T07:58:39.834Z,1004.15
2017-09-30T07:59:39.876Z,1003.82
2017-09-30T08:00:39.890Z,1003.78
2017-09-30T08:01:39.976Z,1003.77
2017-09-30T08:02:39.932Z,1003.88
2017-09-30T08:03:39.961Z,1003.88
2017-09-30T08:04:39.986Z,1003.80
2017-09-30T08:05:40.023Z,1003.81
2017-09-30T08:06:40.054Z,1003.75
2017-09-30T08:07:40.060Z,1003.72
2017-09-30T08:08:40.100Z,1003.69
2017-09-30T08:09:40.124Z,1003.80
2017-09-30T08:10:40.275Z,1003.73
2017-09-30T08:11:40.171Z,1003.65
2017-09-30T08:12:40.185Z,1003.74
2017-09-30T08:13:40.201Z,1003.56
2017-09-30T08:14:40.413Z,1003.51
2017-09-30T08:15:40.290Z,1003.55
2017-09-30T08:16:40.316Z,1003.51
2017-09-30T08:17:40.337Z,1003.53
2017-09-30T08:18:40.330Z,1003.35
2017-09-30T08:19:40.363Z,1003.10
2017-09-30T08:20:40.379Z,1003.20
2017-09-30T08:21:40.536Z,1003.37
2017-09-30T08:22:40.429Z,1003.38
2017-09-30T08:23:40.475Z,1003.57
2017-09-30T08:24:40.482Z,1003.67
2017-09-30T08:25:40.512Z,1003.47
2017-09-30T08:26:40.552Z,1003.56
2017-09-30T08:27:40.570Z,1003.86
2017-09-30T08:28:40.600Z,1003.72
2017-09-30T08:29:40.617Z,1003.92
2017-09-30T08:30:40.640Z,1003.74
2017-09-30T08:31:40.644Z,1003.85
2017-09-30T08:32:40.681Z,1003.76
2017-09-30T08:33:40.694Z,1003.68
2017-09-30T08:34:40.719Z,1003.61
2017-09-30T08:35:40.743Z,1003.61
2017-09-30T08:36:40.779Z,1003.53
2017-09-30T08:37:40.792Z,1003.53
2017-09-30T08:38:40.817Z,1003.47
2017-09-30T08:39:40.840Z,1003.43
2017-09-30T08:40:40.864Z,1003.34
2017-09-30T08:41:40.892Z,1003.35
2017-09-30T08:42:40.913Z,1003.30
2017-09-30T08:43:40.939Z,1003.27
2017-09-30T08:44:40.965Z,1003.23
2017-09-30T08:45:40.987Z,1003.23
2017-09-30T08:46:41.016Z,1003.16
2017-09-30T08:47:41.038Z,1003.18
2017-09-30T08:48:41.060Z,1003.21
2017-09-30T08:49:41.084Z,1003.11
2017-09-30T08:50:41.110Z,1003.17
2017-09-30T08:51:41.135Z,1003.15
2017-09-30T08:52:41.160Z,1003.21
2017-09-30T08:53:41.184Z,1003.25
2017-09-30T08:54:41.205Z,1003.24
2017-09-30T08:55:41.234Z,1003.25
2017-09-30T08:56:41.254Z,1003.21
2017-09-30T08:57:41.278Z,1003.23
2017-09-30T08:58:41.316Z,1003.22
2017-09-30T08:59:41.328Z,1003.20
2017-09-30T09:00:41.348Z,1003.13
2017-09-30T09:01:41.380Z,1003.05
2017-09-30T09:02:41.398Z,1003.06
2017-09-30T09:03:41.422Z,1002.87
2017-09-30T09:04:41.446Z,1002.88
2017-09-30T09:05:41.472Z,1003.02
2017-09-30T09:06:41.497Z,1002.94
2017-09-30T09:07:41.515Z,1002.98
2017-09-30T09:08:41.548Z,1003.10
2017-09-30T09:09:41.566Z,1003.28
2017-09-30T09:10:41.590Z,1003.11
2017-09-30T09:11:41.612Z,1003.02
2017-09-30T09:12:41.638Z,1002.91
2017-09-30T09:13:41.663Z,1002.85
2017-09-30T09:14:41.686Z,1002.84
2017-09-30T09:15:41.715Z,1002.83
2017-09-30T09:16:41.732Z,1002.77
2017-09-30T09:17:41.768Z,1002.71
2017-09-30T09:18:41.783Z,1002.64
2017-09-30T09:19:41.805Z,1002.61
2017-09-30T09:20:41.834Z,1002.56
2017-09-30T09:21:41.853Z,1002.50
2017-09-30T09:22:41.878Z,1002.49
2017-09-30T09:23:41.902Z,1002.45
2017-09-30T09:24:41.928Z,1002.43
2017-09-30T09:25:41.948Z,1002.45
2017-09-30T09:26:41.978Z,1002.45
2017-09-30T09:27:41.997Z,1002.50
2017-09-30T09:28:42.021Z,1002.40
2017-09-30T09:29:42.046Z,1002.40
2017-09-30T09:30:42.072Z,1002.42
2017-09-30T09:31:42.097Z,1002.41
2017-09-30T09:32:42.121Z,1002.43
2017-09-30T09:33:42.142Z,1002.41
2017-09-30T09:34:42.174Z,1002.36
2017-09-30T09:35:42.192Z,1002.30
2017-09-30T09:36:42.213Z,1002.25
2017-09-30T09:37:42.240Z,1002.30
2017-09-30T09:38:42.267Z,1002.34
2017-09-30T09:39:42.288Z,1002.29
2017-09-30T09:40:42.311Z,1002.20
2017-09-30T09:41:42.340Z,1002.14
2017-09-30T09:42:42.358Z,1002.11
2017-09-30T09:43:42.382Z,1002.11
2017-09-30T09:44:42.406Z,1002.15
2017-09-30T09:45:42.456Z,1002.08
2017-09-30T09:46:42.465Z,1002.08
2017-09-30T09:47:42.480Z,1002.03
2017-09-30T09:48:42.504Z,1002.08
2017-09-30T09:49:42.528Z,1002.12
2017-09-30T09:50:42.550Z,1002.13
2017-09-30T09:51:42.577Z,1002.12
2017-09-30T09:52:42.598Z,1002.11
2017-09-30T09:53:42.625Z,1002.14
2017-09-30T09:54:42.648Z,1002.19
2017-09-30T09:55:42.673Z,1002.25
2017-09-30T09:56:42.698Z,1002.28
2017-09-30T09:57:42.722Z,1002.33
2017-09-30T09:58:42.742Z,1002.28
2017-09-30T09:59:42.770Z,1002.32
2017-09-30T10:00:42.791Z,1002.23
2017-09-30T10:01:42.823Z,1002.20
2017-09-30T10:02:42.842Z,1002.17
2017-09-30T10:03:42.868Z,1002.13
2017-09-30T10:04:42.888Z,1002.08
2017-09-30T10:05:42.912Z,1002.10
2017-09-30T10:06:42.938Z,1002.08
2017-09-30T10:07:42.963Z,1002.03
2017-09-30T10:08:42.988Z,1002.00
2017-09-30T10:09:43.010Z,1001.99
2017-09-30T10:10:43.037Z,1002.02
2017-09-30T10:11:43.060Z,1002.06
2017-09-30T10:12:43.092Z,1002.05
2017-09-30T10:13:43.111Z,1001.98
2017-09-30T10:14:43.133Z,1002.01
2017-09-30T10:15:43.157Z,1002.01
2017-09-30T10:16:43.179Z,1002.00
2017-09-30T10:17:43.205Z,1002.01
2017-09-30T10:18:43.234Z,1001.97
2017-09-30T10:19:43.256Z,1001.94
2017-09-30T10:20:43.278Z,1001.94
2017-09-30T10:21:43.302Z,1001.98
2017-09-30T10:22:43.327Z,1001.95
2017-09-30T10:23:43.358Z,1001.91
2017-09-30T10:24:43.377Z,1001.87
2017-09-30T10:25:43.402Z,1001.82
2017-09-30T10:26:43.427Z,1001.77
2017-09-30T10:27:43.453Z,1001.74
2017-09-30T10:28:43.476Z,1001.72
2017-09-30T10:29:43.501Z,1001.64
2017-09-30T10:30:43.526Z,1001.58
2017-09-30T10:31:43.552Z,1001.55
2017-09-30T10:32:43.575Z,1001.53
2017-09-30T10:33:44.363Z,1001.48
2017-09-30T10:34:43.626Z,1001.45
2017-09-30T10:35:43.649Z,1001.43
2017-09-30T10:36:43.674Z,1001.40
2017-09-30T10:37:43.700Z,1001.35
2017-09-30T10:38:43.723Z,1001.31
2017-09-30T10:39:43.748Z,1001.29
2017-09-30T10:40:43.773Z,1001.28
2017-09-30T10:41:43.797Z,1001.25
2017-09-30T10:42:43.821Z,1001.29
2017-09-30T10:43:43.849Z,1001.28
2017-09-30T10:44:43.871Z,1001.31
2017-09-30T10:45:43.902Z,1001.29
2017-09-30T10:46:43.921Z,1001.29
2017-09-30T10:47:43.943Z,1001.33
2017-09-30T10:48:43.966Z,1001.28
2017-09-30T10:49:43.997Z,1001.32
2017-09-30T10:50:44.016Z,1001.32
2017-09-30T10:51:44.051Z,1001.35
2017-09-30T10:52:44.064Z,1001.33
2017-09-30T10:53:44.092Z,1001.24
2017-09-30T10:54:44.114Z,1001.25
2017-09-30T10:55:44.148Z,1001.21
2017-09-30T10:56:44.207Z,1001.23
2017-09-30T10:57:44.202Z,1001.20
2017-09-30T10:58:44.215Z,1001.16
2017-09-30T10:59:44.240Z,1001.18
2017-09-30T11:00:44.260Z,1001.16
2017-09-30T11:01:44.286Z,1001.20
2017-09-30T11:02:44.319Z,1001.24
2017-09-30T11:03:44.337Z,1001.27
2017-09-30T11:04:44.360Z,1001.26
2017-09-30T11:05:44.390Z,1001.26
2017-09-30T11:06:44.410Z,1001.24
2017-09-30T11:07:44.440Z,1001.24
2017-09-30T11:08:44.459Z,1001.23
2017-09-30T11:09:44.484Z,1001.26
2017-09-30T11:10:44.512Z,1001.22
2017-09-30T11:11:44.635Z,1001.21
2017-09-30T11:12:44.558Z,1001.18
2017-09-30T11:13:44.586Z,1001.15
2017-09-30T11:14:44.608Z,1001.17
2017-09-30T11:15:44.633Z,1001.17
2017-09-30T11:16:44.658Z,1001.12
2017-09-30T11:17:44.680Z,1001.12
2017-09-30T11:18:44.711Z,1001.10
2017-09-30T11:19:44.732Z,1001.17
2017-09-30T11:20:44.756Z,1001.14
2017-09-30T11:21:44.783Z,1001.14
2017-09-30T11:22:44.807Z,1001.21
2017-09-30T11:23:44.834Z,1001.22
2017-09-30T11:24:44.862Z,1001.27
2017-09-30T11:25:44.897Z,1001.27
2017-09-30T11:26:44.905Z,1001.26
2017-09-30T11:27:44.929Z,1001.20
2017-09-30T11:28:45.086Z,1001.17
2017-09-30T11:29:44.997Z,1001.14
2017-09-30T11:30:45.011Z,1001.09
2017-09-30T11:31:45.188Z,1001.08
2017-09-30T11:32:45.059Z,1000.99
2017-09-30T11:33:45.081Z,1001.02
2017-09-30T11:34:45.183Z,1000.98
2017-09-30T11:35:45.125Z,1000.98
2017-09-30T11:36:45.184Z,1000.94
2017-09-30T11:37:45.180Z,1000.96
2017-09-30T11:38:45.203Z,1000.93
2017-09-30T11:39:45.238Z,1000.93
2017-09-30T11:40:45.246Z,1000.88
2017-09-30T11:41:45.452Z,1000.89
2017-09-30T11:42:45.309Z,1000.87
2017-09-30T11:43:45.366Z,1000.90
2017-09-30T11:44:45.347Z,1000.89
2017-09-30T11:45:45.377Z,1000.86
2017-09-30T11:46:45.440Z,1000.81
2017-09-30T11:47:45.446Z,1000.76
2017-09-30T11:48:45.457Z,1000.79
2017-09-30T11:49:45.512Z,1000.77
2017-09-30T11:50:45.574Z,1000.76
2017-09-30T11:51:45.524Z,1000.73
2017-09-30T11:52:45.673Z,1000.73
2017-09-30T11:53:45.562Z,1000.73
2017-09-30T11:54:45.622Z,1000.66
2017-09-30T11:55:45.614Z,1000.69
2017-09-30T11:56:45.667Z,1000.68
2017-09-30T11:57:45.670Z,1000.65
2017-09-30T11:58:45.724Z,1000.63
2017-09-30T11:59:45.715Z,1000.66
2017-09-30T12:00:45.918Z,1000.64
2017-09-30T12:01:45.760Z,1000.57
2017-09-30T12:02:45.816Z,1000.52
2017-09-30T12:03:45.853Z,1000.52
2017-09-30T12:04:45.877Z,1000.55
2017-09-30T12:05:45.904Z,1000.55